MHLM - Ramon Villeda Morales Intl.
MHLM 050400Z VRB02KT 9999 FEW025 25/22 Q1010 A2983 NOSIG
Observed:
Wind:
visibility:
Flight Rules:
Cloud Levels:
Temperature:
Humidity:
Pressure: